CXPRP CYXU-CYOW
Flight info
| Callsign | CXPRP |
|---|---|
| Flight time | N/A |
| Altitude | 35000 |
| Route | NUBER DCT SIKBO Q905 BOMET DCT MIVOK CAPTL5 |
| Aircraft | B738/M-SDE2E3FGHIRWXY/LB1 |
Departure
| Time | 2026-04-20 23:12 |
|---|---|
| Airport | London International Airport (CYXU) |
Arrival
| Time | N/A |
|---|---|
| Airport | Ottawa Macdonald-Cartier International Airport (CYOW) |
| Time | Latitude | Longitude | Altitude | Speed | Heading |
|---|---|---|---|---|---|
| 2026-04-20 22:05 | 43.02851 | -81.14797 | 905 ft | 0 kts | 257° |
| 2026-04-20 22:46 | 43.02854 | -81.14779 | 905 ft | 3 kts | 257° |
| 2026-04-20 22:46 | 43.02857 | -81.14760 | 905 ft | 0 kts | 257° |
| 2026-04-20 22:47 | 43.02858 | -81.14760 | 905 ft | 0 kts | 257° |
| 2026-04-20 22:48 | 43.02857 | -81.14760 | 905 ft | 0 kts | 257° |
| 2026-04-20 22:48 | 43.02858 | -81.14760 | 905 ft | 0 kts | 257° |
| 2026-04-20 22:48 | 43.02857 | -81.14760 | 905 ft | 0 kts | 257° |
| 2026-04-20 22:49 | 43.02858 | -81.14760 | 905 ft | 0 kts | 257° |
| 2026-04-20 22:49 | 43.02857 | -81.14760 | 905 ft | 0 kts | 257° |
| 2026-04-20 22:50 | 43.02858 | -81.14760 | 905 ft | 0 kts | 257° |
| 2026-04-20 22:50 | 43.02857 | -81.14760 | 905 ft | 0 kts | 257° |
| 2026-04-20 22:51 | 43.02858 | -81.14760 | 905 ft | 0 kts | 257° |
| 2026-04-20 22:51 | 43.02857 | -81.14760 | 905 ft | 0 kts | 257° |
| 2026-04-20 22:51 | 43.02858 | -81.14760 | 905 ft | 0 kts | 257° |
| 2026-04-20 22:51 | 43.02857 | -81.14760 | 905 ft | 0 kts | 257° |
| 2026-04-20 22:54 | 43.02858 | -81.14760 | 905 ft | 0 kts | 257° |
| 2026-04-20 22:54 | 43.02857 | -81.14760 | 905 ft | 0 kts | 257° |
| 2026-04-20 22:56 | 43.02858 | -81.14760 | 905 ft | 0 kts | 257° |
| 2026-04-20 22:56 | 43.02857 | -81.14760 | 905 ft | 0 kts | 257° |
| 2026-04-20 22:57 | 43.02857 | -81.14761 | 905 ft | 0 kts | 257° |
| 2026-04-20 22:57 | 43.02855 | -81.14772 | 905 ft | 0 kts | 258° |
| 2026-04-20 22:58 | 43.02855 | -81.14774 | 905 ft | 1 kts | 257° |
| 2026-04-20 22:59 | 43.02851 | -81.14807 | 905 ft | 0 kts | 264° |
| 2026-04-20 22:59 | 43.02851 | -81.14808 | 905 ft | 0 kts | 264° |
| 2026-04-20 23:02 | 43.02854 | -81.14777 | 905 ft | 3 kts | 264° |
| 2026-04-20 23:02 | 43.02856 | -81.14745 | 905 ft | 0 kts | 264° |
| 2026-04-20 23:03 | 43.02856 | -81.14747 | 905 ft | 0 kts | 264° |
| 2026-04-20 23:04 | 43.02856 | -81.14748 | 905 ft | 0 kts | 258° |
| 2026-04-20 23:04 | 43.02851 | -81.14750 | 905 ft | 1 kts | 175° |
| 2026-04-20 23:05 | 43.02841 | -81.14732 | 905 ft | 3 kts | 116° |
| 2026-04-20 23:05 | 43.02831 | -81.14696 | 905 ft | 4 kts | 109° |
| 2026-04-20 23:05 | 43.02816 | -81.14644 | 905 ft | 7 kts | 123° |
| 2026-04-20 23:05 | 43.02777 | -81.14576 | 905 ft | 10 kts | 131° |
| 2026-04-20 23:06 | 43.02715 | -81.14497 | 905 ft | 13 kts | 144° |
| 2026-04-20 23:06 | 43.02636 | -81.14410 | 907 ft | 14 kts | 140° |
| 2026-04-20 23:06 | 43.02559 | -81.14317 | 909 ft | 14 kts | 139° |
| 2026-04-20 23:06 | 43.02481 | -81.14224 | 911 ft | 14 kts | 139° |
| 2026-04-20 23:07 | 43.02403 | -81.14129 | 913 ft | 15 kts | 137° |
| 2026-04-20 23:07 | 43.02328 | -81.14035 | 914 ft | 13 kts | 127° |
| 2026-04-20 23:07 | 43.02340 | -81.13935 | 917 ft | 9 kts | 30° |
| 2026-04-20 23:07 | 43.02345 | -81.13929 | 917 ft | 0 kts | 49° |
| 2026-04-20 23:10 | 43.02345 | -81.13928 | 917 ft | 0 kts | 49° |
| 2026-04-20 23:10 | 43.02349 | -81.13922 | 917 ft | 1 kts | 49° |
| 2026-04-20 23:10 | 43.02368 | -81.13893 | 917 ft | 6 kts | 48° |
| 2026-04-20 23:10 | 43.02400 | -81.13851 | 918 ft | 6 kts | 43° |
| 2026-04-20 23:11 | 43.02436 | -81.13858 | 918 ft | 6 kts | 327° |
| 2026-04-20 23:11 | 43.02480 | -81.13904 | 917 ft | 11 kts | 321° |
| 2026-04-20 23:11 | 43.02665 | -81.14126 | 913 ft | 61 kts | 316° |
| 2026-04-20 23:11 | 43.03212 | -81.14774 | 908 ft | 143 kts | 322° |
| 2026-04-20 23:12 | 43.04044 | -81.15778 | 1619 ft | 166 kts | 316° |
| 2026-04-20 23:12 | 43.04968 | -81.16869 | 2538 ft | 188 kts | 319° |
| 2026-04-20 23:12 | 43.06062 | -81.18050 | 3346 ft | 215 kts | 322° |
| 2026-04-20 23:12 | 43.07339 | -81.19325 | 4275 ft | 237 kts | 323° |
| 2026-04-20 23:13 | 43.08785 | -81.20719 | 4899 ft | 273 kts | 324° |
| 2026-04-20 23:13 | 43.10474 | -81.22375 | 5010 ft | 318 kts | 323° |
| 2026-04-20 23:13 | 43.12293 | -81.24126 | 4981 ft | 317 kts | 324° |
| 2026-04-20 23:13 | 43.14055 | -81.25756 | 4982 ft | 296 kts | 326° |
| 2026-04-20 23:14 | 43.15722 | -81.27226 | 4978 ft | 275 kts | 327° |
| 2026-04-20 23:14 | 43.17199 | -81.28625 | 4986 ft | 257 kts | 322° |
| 2026-04-20 23:14 | 43.18514 | -81.30070 | 4985 ft | 241 kts | 320° |
| 2026-04-20 23:14 | 43.19778 | -81.31506 | 5049 ft | 225 kts | 319° |
| 2026-04-20 23:15 | 43.20956 | -81.32845 | 5292 ft | 220 kts | 319° |
| 2026-04-20 23:15 | 43.22128 | -81.34177 | 5531 ft | 219 kts | 319° |